| Date | Time | Temp. (oF) | Dew Point (oF) | Rel. Hum. (%) | Press. (in.) | Wind Dir. | Wind Speed (mph) | Hourly Rainfall (in.) |
|
|---|---|---|---|---|---|---|---|---|---|
| 1 | 04/27 | 00:00 | 78 | 53 | 43 | 30.24 | SSW | 5 | 0.00 |
| 2 | 04/26 | 23:00 | 78 | 52 | 42 | 30.23 | SW | 3 | 0.00 |
| 3 | 04/26 | 22:00 | 80 | 53 | 40 | 30.23 | SW | 7 | 0.00 |
| 4 | 04/26 | 21:00 | 79 | 53 | 41 | 30.20 | SSW | 4 | 0.00 |
| 5 | 04/26 | 20:00 | 84 | 52 | 34 | 30.18 | SSW | 2 | 0.00 |
| 6 | 04/26 | 19:00 | 88 | 52 | 30 | 30.16 | SSW | 4 | 0.00 |
| 7 | 04/26 | 18:00 | 90 | 53 | 29 | 30.16 | SW | 4 | 0.00 |
| 8 | 04/26 | 17:00 | 90 | 52 | 28 | 30.16 | WSW | 8 | 0.00 |
| 9 | 04/26 | 16:00 | 90 | 51 | 27 | 30.17 | WNW | 0 | 0.00 |
| 10 | 04/26 | 15:00 | 90 | 50 | 26 | 30.20 | W | 0 | 0.00 |
| 11 | 04/26 | 14:00 | 89 | 53 | 30 | 30.21 | W | 4 | 0.00 |
| 12 | 04/26 | 13:00 | 88 | 54 | 32 | 30.24 | NW | 6 | 0.00 |
| 13 | 04/26 | 12:00 | 85 | 51 | 32 | 30.26 | N | 8 | 0.00 |
| 14 | 04/26 | 11:00 | 85 | 54 | 36 | 30.27 | WNW | 10 | 0.00 |
| 15 | 04/26 | 10:00 | 81 | 59 | 48 | 30.26 | NW | 8 | 0.00 |
| 16 | 04/26 | 09:00 | 73 | 57 | 58 | 30.25 | WSW | 3 | 0.00 |
| 17 | 04/26 | 08:00 | 65 | 57 | 77 | 30.24 | SW | 1 | 0.00 |
| 18 | 04/26 | 07:00 | 58 | 53 | 86 | 30.21 | NE | 0 | 0.00 |
| 19 | 04/26 | 06:00 | 59 | 53 | 81 | 30.19 | N | 1 | 0.00 |
| 20 | 04/26 | 05:00 | 62 | 53 | 75 | 30.17 | N | 0 | 0.00 |
| 21 | 04/26 | 04:00 | 64 | 53 | 68 | 30.16 | N | 0 | 0.00 |
| 22 | 04/26 | 03:00 | 69 | 54 | 59 | 30.15 | N | 0 | 0.00 |
| 23 | 04/26 | 02:00 | 71 | 53 | 54 | 30.15 | NNE | 0 | 0.00 |
| 24 | 04/26 | 01:00 | 74 | 52 | 48 | 30.14 | SW | 5 | 0.00 |